createdAt,value
2022-11-20T00:02:36.720Z,92113.28
2022-11-20T00:05:21.930Z,92109.06
2022-11-20T00:08:05.053Z,92110.31
2022-11-20T00:10:48.018Z,92113.31
2022-11-20T00:13:30.979Z,92111.13
2022-11-20T00:16:15.766Z,92115.06
2022-11-20T00:18:58.791Z,92112.63
2022-11-20T00:21:43.093Z,92117.81
2022-11-20T00:24:26.055Z,92119.31
2022-11-20T00:27:08.984Z,92116.66
2022-11-20T00:29:51.953Z,92118.03
2022-11-20T00:32:34.975Z,92128.75
2022-11-20T00:35:18.044Z,92116.66
2022-11-20T00:38:02.349Z,92117.91
2022-11-20T00:40:45.291Z,92117.75
2022-11-20T00:43:28.595Z,92121.13
2022-11-20T00:46:14.998Z,92125.97
2022-11-20T00:48:58.713Z,92128.38
2022-11-20T00:51:41.668Z,92129.19
2022-11-20T00:54:25.942Z,92133.22
2022-11-20T00:57:08.910Z,92129.88
2022-11-20T00:59:51.779Z,92135.75
2022-11-20T01:02:34.777Z,92140.69
2022-11-20T01:05:17.785Z,92138.84
2022-11-20T01:08:00.737Z,92132.06
2022-11-20T01:10:45.070Z,92129.50
2022-11-20T01:13:40.206Z,92138.03
2022-11-20T01:16:24.967Z,92136.31
2022-11-20T01:19:10.476Z,92142.19
2022-11-20T01:21:55.028Z,92142.44
2022-11-20T01:24:37.723Z,92140.34
2022-11-20T01:27:22.094Z,92138.63
2022-11-20T01:30:05.602Z,92134.38
2022-11-20T01:32:48.605Z,92138.63
2022-11-20T01:35:31.530Z,92132.53
2022-11-20T01:38:14.487Z,92136.47
2022-11-20T01:40:57.702Z,92137.94
2022-11-20T01:43:41.023Z,92139.56
2022-11-20T01:46:24.057Z,92137.72
2022-11-20T01:49:13.207Z,92137.59
2022-11-20T01:52:00.914Z,92133.91
2022-11-20T01:54:49.320Z,92137.13
2022-11-20T01:57:35.984Z,92135.28
2022-11-20T02:00:22.686Z,92118.19
2022-11-20T02:03:09.378Z,92123.94
2022-11-20T02:05:57.884Z,92132.38
2022-11-20T02:08:41.156Z,92134.78
2022-11-20T02:11:24.272Z,92131.31
2022-11-20T02:14:06.241Z,92135.72
2022-11-20T02:16:51.874Z,92135.59
2022-11-20T02:19:34.893Z,92139.84
2022-11-20T02:22:24.356Z,92133.88
2022-11-20T02:25:09.863Z,92142.28
2022-11-20T02:27:53.140Z,92144.69
2022-11-20T02:30:36.129Z,92140.31
2022-11-20T02:33:19.039Z,92139.25
2022-11-20T02:36:05.287Z,92143.41
2022-11-20T02:38:48.308Z,92141.69
2022-11-20T02:41:37.713Z,92135.69
2022-11-20T02:44:20.897Z,92136.63
2022-11-20T02:47:03.977Z,92133.97
2022-11-20T02:49:46.917Z,92136.50
2022-11-20T02:52:29.877Z,92133.81
2022-11-20T02:55:12.904Z,92141.34
2022-11-20T02:57:57.233Z,92142.13
2022-11-20T03:00:40.224Z,92136.25
2022-11-20T03:03:23.142Z,92141.19
2022-11-20T03:06:06.535Z,92135.34
2022-11-20T03:08:49.703Z,92140.50
2022-11-20T03:11:33.245Z,92142.38
2022-11-20T03:14:17.600Z,92144.22
2022-11-20T03:17:00.669Z,92139.50
2022-11-20T03:19:43.649Z,92143.78
2022-11-20T03:22:26.614Z,92136.84
2022-11-20T03:25:09.785Z,92137.66
2022-11-20T03:27:52.942Z,92132.47
2022-11-20T03:30:37.378Z,92136.63
2022-11-20T03:33:20.308Z,92132.34
2022-11-20T03:36:04.192Z,92133.25
2022-11-20T03:38:47.824Z,92134.09
2022-11-20T03:41:32.937Z,92129.81
2022-11-20T03:44:15.874Z,92132.25
2022-11-20T03:47:00.108Z,92137.31
2022-11-20T03:49:43.036Z,92134.88
2022-11-20T03:52:25.965Z,92139.94
2022-11-20T03:55:10.185Z,92143.31
2022-11-20T03:57:53.478Z,92135.81
2022-11-20T04:00:36.684Z,92134.09
2022-11-20T04:03:21.210Z,92140.78
2022-11-20T04:06:05.439Z,92141.69
2022-11-20T04:08:53.582Z,92139.16
2022-11-20T04:11:38.398Z,92132.47
2022-11-20T04:14:22.576Z,92139.03
2022-11-20T04:17:05.832Z,92142.50
2022-11-20T04:19:50.278Z,92136.84
2022-11-20T04:22:33.560Z,92134.56
2022-11-20T04:25:16.522Z,92139.75
2022-11-20T04:27:59.474Z,92141.69
2022-11-20T04:30:42.597Z,92137.31
2022-11-20T04:33:27.092Z,92129.72
2022-11-20T04:36:15.059Z,92124.66
2022-11-20T04:39:00.005Z,92126.25
2022-11-20T04:41:43.486Z,92121.19
2022-11-20T04:44:26.394Z,92122.09
2022-11-20T04:47:09.370Z,92121.41
2022-11-20T04:49:52.507Z,92118.19
2022-11-20T04:52:36.874Z,92120.06
2022-11-20T04:55:19.834Z,92125.25
2022-11-20T04:58:02.788Z,92123.75
2022-11-20T05:00:45.709Z,92118.78
2022-11-20T05:03:28.706Z,92128.94
2022-11-20T05:06:12.808Z,92128.94
2022-11-20T05:08:57.164Z,92130.53
2022-11-20T05:11:40.250Z,92124.69
2022-11-20T05:14:23.269Z,92129.63
2022-11-20T05:17:06.329Z,92138.03
2022-11-20T05:19:52.959Z,92136.31
2022-11-20T05:22:36.199Z,92132.06
2022-11-20T05:25:20.538Z,92141.28
2022-11-20T05:28:03.475Z,92147.97
2022-11-20T05:30:46.404Z,92149.56
2022-11-20T05:33:29.463Z,92142.88
2022-11-20T05:36:13.720Z,92145.41
2022-11-20T05:39:01.503Z,92146.22
2022-11-20T05:41:46.397Z,92142.88
2022-11-20T05:44:29.420Z,92137.69
2022-11-20T05:47:12.374Z,92143.53
2022-11-20T05:49:55.549Z,92134.22
2022-11-20T05:52:38.517Z,92141.00
2022-11-20T05:55:21.610Z,92138.47
2022-11-20T05:58:06.030Z,92136.75
2022-11-20T06:00:49.007Z,92136.75
2022-11-20T06:03:31.969Z,92145.16
2022-11-20T06:06:15.579Z,92140.09
2022-11-20T06:08:59.935Z,92141.69
2022-11-20T06:11:42.909Z,92137.56
2022-11-20T06:14:27.247Z,92137.56
2022-11-20T06:17:10.332Z,92142.63
2022-11-20T06:19:53.330Z,92141.69
2022-11-20T06:22:36.230Z,92140.78
2022-11-20T06:25:19.214Z,92140.78
2022-11-20T06:28:02.196Z,92141.47
2022-11-20T06:30:48.226Z,92150.81
2022-11-20T06:33:31.292Z,92156.69
2022-11-20T06:36:15.832Z,92158.44
2022-11-20T06:38:58.573Z,92155.91
2022-11-20T06:41:41.571Z,92152.44
2022-11-20T06:44:24.527Z,92159.22
2022-11-20T06:47:08.846Z,92161.06
2022-11-20T06:49:51.796Z,92165.34
2022-11-20T06:52:39.473Z,92173.06
2022-11-20T06:55:25.228Z,92179.03
2022-11-20T06:58:08.176Z,92183.31
2022-11-20T07:00:51.217Z,92180.78
2022-11-20T07:03:35.963Z,92184.38
2022-11-20T07:06:18.941Z,92185.16
2022-11-20T07:09:02.580Z,92182.53
2022-11-20T07:11:45.584Z,92182.41
2022-11-20T07:14:28.561Z,92180.66
2022-11-20T07:17:11.557Z,92178.03
2022-11-20T07:19:55.854Z,92181.47
2022-11-20T07:22:38.807Z,92183.09
2022-11-20T07:25:21.770Z,92183.88
2022-11-20T07:28:05.638Z,92179.75
2022-11-20T07:30:52.454Z,92184.94
2022-11-20T07:33:35.462Z,92188.53
2022-11-20T07:36:19.781Z,92194.38
2022-11-20T07:39:03.045Z,92178.13
2022-11-20T07:41:45.940Z,92175.50
2022-11-20T07:44:28.913Z,92182.03
2022-11-20T07:47:11.872Z,92178.59
2022-11-20T07:49:54.858Z,92181.81
2022-11-20T07:52:39.196Z,92182.50
2022-11-20T07:55:22.109Z,92185.03
2022-11-20T07:58:05.123Z,92185.03
2022-11-20T08:00:48.075Z,92178.13
2022-11-20T08:03:31.091Z,92178.13
2022-11-20T08:06:14.019Z,92184.00
2022-11-20T08:08:58.550Z,92185.50
2022-11-20T08:11:55.182Z,92182.16
2022-11-20T08:14:38.156Z,92185.50
2022-11-20T08:17:21.059Z,92190.56
2022-11-20T08:20:04.279Z,92188.81
2022-11-20T08:22:47.299Z,92191.50
2022-11-20T08:25:32.274Z,92185.50
2022-11-20T08:28:20.769Z,92184.56
2022-11-20T08:31:05.530Z,92192.84
2022-11-20T08:33:48.559Z,92178.56
2022-11-20T08:36:35.423Z,92186.06
2022-11-20T08:39:18.466Z,92181.00
2022-11-20T08:42:02.930Z,92188.59
2022-11-20T08:44:45.910Z,92180.06
2022-11-20T08:47:28.856Z,92187.69
2022-11-20T08:50:12.713Z,92195.16
2022-11-20T08:52:55.697Z,92182.38
2022-11-20T08:55:38.648Z,92177.16
2022-11-20T08:58:22.940Z,92182.38
2022-11-20T09:01:06.410Z,92194.94
2022-11-20T09:03:49.915Z,92183.03
2022-11-20T09:06:32.897Z,92188.00
2022-11-20T09:09:15.822Z,92187.19
2022-11-20T09:11:58.790Z,92188.94
2022-11-20T09:14:43.410Z,92184.78
2022-11-20T09:17:26.184Z,92184.78
2022-11-20T09:20:10.757Z,92183.16
2022-11-20T09:22:53.579Z,92186.84
2022-11-20T09:25:36.563Z,92191.00
2022-11-20T09:28:19.639Z,92189.28
2022-11-20T09:31:07.309Z,92186.84
2022-11-20T09:33:50.234Z,92189.97
2022-11-20T09:36:33.519Z,92184.78
2022-11-20T09:39:16.513Z,92184.09
2022-11-20T09:42:28.606Z,92187.44
2022-11-20T09:45:19.632Z,92186.53
2022-11-20T09:48:22.925Z,92186.53
2022-11-20T09:51:18.876Z,92181.44
2022-11-20T09:54:11.474Z,92173.84
2022-11-20T09:56:59.123Z,92177.16
2022-11-20T09:59:44.316Z,92177.84
2022-11-20T10:02:32.978Z,92174.63
2022-11-20T10:05:21.704Z,92171.16
2022-11-20T10:08:15.953Z,92172.88
2022-11-20T10:11:06.837Z,92163.44
2022-11-20T10:14:01.565Z,92167.72
2022-11-20T10:16:55.348Z,92165.19
2022-11-20T10:19:52.972Z,92163.69
2022-11-20T10:22:52.966Z,92158.50
2022-11-20T10:25:41.765Z,92170.25
2022-11-20T10:28:37.029Z,92162.63
2022-11-20T10:31:31.406Z,92159.28
2022-11-20T10:34:25.436Z,92165.03
2022-11-20T10:37:14.055Z,92165.97
2022-11-20T10:40:07.695Z,92158.13
2022-11-20T10:42:56.992Z,92155.47
2022-11-20T10:45:49.424Z,92160.56
2022-11-20T10:48:38.640Z,92157.06
2022-11-20T10:51:33.287Z,92153.75
2022-11-20T10:54:24.500Z,92152.00
2022-11-20T10:57:18.953Z,92155.81
2022-11-20T11:00:08.168Z,92155.22
2022-11-20T11:02:52.801Z,92141.75
2022-11-20T11:05:38.458Z,92146.81
2022-11-20T11:08:22.080Z,92148.53
2022-11-20T11:11:17.458Z,92150.28
2022-11-20T11:14:09.162Z,92149.44
2022-11-20T11:16:53.983Z,92146.69
2022-11-20T11:19:36.920Z,92144.84
2022-11-20T11:22:20.466Z,92145.66
2022-11-20T11:25:03.958Z,92143.69
2022-11-20T11:27:48.812Z,92131.78
2022-11-20T11:30:45.602Z,92144.38
2022-11-20T11:33:30.174Z,92135.69
2022-11-20T11:36:20.099Z,92133.97
2022-11-20T11:39:05.223Z,92126.09
2022-11-20T11:41:49.369Z,92127.97
2022-11-20T11:44:51.999Z,92127.72
2022-11-20T11:47:40.244Z,92134.53
2022-11-20T11:50:24.758Z,92125.84
2022-11-20T11:53:11.334Z,92127.47
2022-11-20T11:56:00.338Z,92132.31
2022-11-20T11:58:48.270Z,92122.16
2022-11-20T12:01:37.324Z,92120.31
2022-11-20T12:04:36.333Z,92120.16
2022-11-20T12:07:46.053Z,92109.00
2022-11-20T12:10:43.010Z,92108.84
2022-11-20T12:13:39.297Z,92110.31
2022-11-20T12:16:24.133Z,92106.88
2022-11-20T12:19:12.349Z,92110.09
2022-11-20T12:22:05.767Z,92107.44
2022-11-20T12:24:56.885Z,92110.53
2022-11-20T12:27:57.430Z,92107.06
2022-11-20T12:30:47.814Z,92104.53
2022-11-20T12:33:53.586Z,92113.75
2022-11-20T12:36:43.119Z,92112.81
2022-11-20T12:39:35.974Z,92111.22
2022-11-20T12:42:48.354Z,92107.75
2022-11-20T12:45:49.019Z,92114.31
2022-11-20T12:49:06.809Z,92110.97
2022-11-20T12:52:00.532Z,92116.41
2022-11-20T12:55:14.976Z,92115.22
2022-11-20T12:58:06.161Z,92116.06
2022-11-20T13:00:56.938Z,92111.75
2022-11-20T13:03:49.542Z,92104.28
2022-11-20T13:06:32.631Z,92105.75
2022-11-20T13:09:19.137Z,92103.09
2022-11-20T13:12:10.905Z,92094.53
2022-11-20T13:14:58.296Z,92086.91
2022-11-20T13:17:49.879Z,92092.69
2022-11-20T13:20:35.520Z,92083.47
2022-11-20T13:23:28.546Z,92084.97
2022-11-20T13:26:19.078Z,92082.28
2022-11-20T13:29:11.364Z,92070.50
2022-11-20T13:32:07.989Z,92071.44
2022-11-20T13:34:54.922Z,92076.53
2022-11-20T13:37:39.323Z,92073.59
2022-11-20T13:40:24.692Z,92072.44
2022-11-20T13:43:20.061Z,92074.97
2022-11-20T13:46:07.122Z,92074.03
2022-11-20T13:48:50.113Z,92068.28
2022-11-20T13:51:44.597Z,92078.03
2022-11-20T13:54:57.951Z,92075.66
2022-11-20T13:58:02.417Z,92074.72
2022-11-20T14:01:03.149Z,92062.81
2022-11-20T14:04:06.529Z,92067.88
2022-11-20T14:06:51.378Z,92069.63
2022-11-20T14:09:36.140Z,92069.09
2022-11-20T14:12:21.329Z,92079.66
2022-11-20T14:15:04.687Z,92074.03
2022-11-20T14:17:47.692Z,92074.47
2022-11-20T14:20:32.701Z,92076.75
2022-11-20T14:23:29.749Z,92073.25
2022-11-20T14:26:16.734Z,92074.88
2022-11-20T14:29:00.508Z,92072.34
2022-11-20T14:31:46.221Z,92078.00
2022-11-20T14:34:34.835Z,92068.63
2022-11-20T14:37:23.907Z,92071.84
2022-11-20T14:40:23.663Z,92069.31
2022-11-20T14:43:20.929Z,92067.16
2022-11-20T14:46:06.419Z,92062.06
2022-11-20T14:48:52.325Z,92064.59
2022-11-20T14:51:39.228Z,92068.50
2022-11-20T14:54:24.086Z,92069.31
2022-11-20T14:57:07.160Z,92072.63
2022-11-20T14:59:51.018Z,92069.06
2022-11-20T15:02:34.108Z,92077.22
2022-11-20T15:05:18.554Z,92067.97
2022-11-20T15:08:08.935Z,92065.44
2022-11-20T15:10:54.111Z,92071.19
2022-11-20T15:13:39.957Z,92062.66
2022-11-20T15:16:25.297Z,92065.06
2022-11-20T15:19:19.049Z,92067.59
2022-11-20T15:22:01.997Z,92067.72
2022-11-20T15:24:45.002Z,92071.50
2022-11-20T15:27:29.362Z,92066.41
2022-11-20T15:30:16.599Z,92064.41
2022-11-20T15:32:59.522Z,92076.72
2022-11-20T15:35:42.562Z,92075.41
2022-11-20T15:38:25.551Z,92072.84
2022-11-20T15:41:09.073Z,92060.84
2022-11-20T15:44:01.493Z,92059.06
2022-11-20T15:46:47.359Z,92058.28
2022-11-20T15:49:30.265Z,92061.50
2022-11-20T15:52:14.210Z,92058.28
2022-11-20T15:54:57.118Z,92061.50
2022-11-20T15:57:40.109Z,92057.22
2022-11-20T16:00:24.615Z,92058.16
2022-11-20T16:03:07.389Z,92054.69
2022-11-20T16:05:50.944Z,92057.22
2022-11-20T16:08:33.927Z,92056.28
2022-11-20T16:11:18.862Z,92062.19
2022-11-20T16:14:33.695Z,92052.13
2022-11-20T16:17:37.983Z,92055.50
2022-11-20T16:20:21.548Z,92051.06
2022-11-20T16:23:04.710Z,92049.19
2022-11-20T16:25:47.854Z,92049.19
2022-11-20T16:28:30.826Z,92046.66
2022-11-20T16:31:15.358Z,92038.09
2022-11-20T16:34:00.587Z,92032.34
2022-11-20T16:36:44.634Z,92040.91
2022-11-20T16:39:27.815Z,92036.78
2022-11-20T16:42:10.834Z,92038.09
2022-11-20T16:44:53.849Z,92028.19
2022-11-20T16:47:37.143Z,92040.25
2022-11-20T16:50:21.507Z,92039.03
2022-11-20T16:53:04.527Z,92035.56
2022-11-20T16:55:48.445Z,92034.63
2022-11-20T16:58:31.379Z,92037.72
2022-11-20T17:01:17.313Z,92042.66
2022-11-20T17:04:02.455Z,92047.47
2022-11-20T17:06:48.013Z,92049.63
2022-11-20T17:09:31.025Z,92046.53
2022-11-20T17:12:13.968Z,92037.16
2022-11-20T17:14:57.170Z,92038.09
2022-11-20T17:17:40.190Z,92044.00
2022-11-20T17:20:23.348Z,92038.09
2022-11-20T17:23:07.673Z,92045.34
2022-11-20T17:25:50.629Z,92033.84
2022-11-20T17:28:34.163Z,92035.31
2022-11-20T17:31:18.482Z,92043.88
2022-11-20T17:34:01.918Z,92027.94
2022-11-20T17:36:46.585Z,92036.78
2022-11-20T17:39:30.908Z,92034.63
2022-11-20T17:42:29.755Z,92038.38
2022-11-20T17:45:12.953Z,92048.56
2022-11-20T17:47:55.938Z,92061.53
2022-11-20T17:50:38.907Z,92075.69
2022-11-20T17:53:21.859Z,92062.19
2022-11-20T17:56:24.255Z,92070.16
2022-11-20T17:59:08.414Z,92072.31
2022-11-20T18:01:51.441Z,92075.09
2022-11-20T18:04:34.504Z,92072.03
2022-11-20T18:07:17.413Z,92072.13
2022-11-20T18:10:00.443Z,92075.75
2022-11-20T18:12:45.055Z,92073.31
2022-11-20T18:15:28.039Z,92074.38
2022-11-20T18:18:10.959Z,92073.84
2022-11-20T18:20:54.743Z,92072.22
2022-11-20T18:23:37.743Z,92072.47
2022-11-20T18:26:20.775Z,92071.78
2022-11-20T18:29:07.441Z,92067.63
2022-11-20T18:31:50.543Z,92071.94
2022-11-20T18:34:33.645Z,92075.25
2022-11-20T18:37:16.779Z,92088.09
2022-11-20T18:39:59.693Z,92079.56
2022-11-20T18:43:00.050Z,92081.28
2022-11-20T18:45:44.405Z,92075.41
2022-11-20T18:48:27.431Z,92081.41
2022-11-20T18:51:11.927Z,92074.56
2022-11-20T18:53:54.709Z,92077.13
2022-11-20T18:56:37.823Z,92065.34
2022-11-20T18:59:22.147Z,92065.50
2022-11-20T19:02:06.406Z,92070.56
2022-11-20T19:04:49.921Z,92062.94
2022-11-20T19:07:32.891Z,92057.88
2022-11-20T19:10:18.966Z,92046.78
2022-11-20T19:13:01.881Z,92045.84
2022-11-20T19:15:44.880Z,92051.03
2022-11-20T19:18:29.421Z,92047.56
2022-11-20T19:21:12.990Z,92046.78
2022-11-20T19:23:58.419Z,92042.63
2022-11-20T19:26:41.418Z,92046.25
2022-11-20T19:29:26.733Z,92043.81
2022-11-20T19:32:09.947Z,92040.34
2022-11-20T19:34:54.492Z,92044.63
2022-11-20T19:37:37.505Z,92041.16
2022-11-20T19:40:20.469Z,92040.34
2022-11-20T19:43:03.962Z,92026.72
2022-11-20T19:45:46.862Z,92023.25
2022-11-20T19:48:31.954Z,92007.75
2022-11-20T19:51:18.261Z,92003.72
2022-11-20T19:54:02.139Z,91999.59
2022-11-20T19:56:47.316Z,91998.63
2022-11-20T19:59:30.688Z,91997.84
2022-11-20T20:02:13.718Z,91999.47
2022-11-20T20:04:56.702Z,92002.69
2022-11-20T20:07:41.179Z,91999.88
2022-11-20T20:10:24.227Z,92003.91
2022-11-20T20:13:07.697Z,92011.28
2022-11-20T20:15:50.711Z,92015.28
2022-11-20T20:18:33.682Z,92015.97
2022-11-20T20:21:18.722Z,92014.09
2022-11-20T20:24:03.420Z,92009.81
2022-11-20T20:26:46.419Z,92008.88
2022-11-20T20:29:29.496Z,92010.47
2022-11-20T20:32:12.549Z,92001.94
2022-11-20T20:34:55.469Z,92001.94
2022-11-20T20:37:38.426Z,91995.91
2022-11-20T20:40:22.698Z,91995.00
2022-11-20T20:43:05.806Z,91991.66
2022-11-20T20:45:49.695Z,91981.34
2022-11-20T20:48:32.629Z,91988.19
2022-11-20T20:51:16.114Z,91982.16
2022-11-20T20:53:59.427Z,91983.91
2022-11-20T20:56:43.809Z,91975.34
2022-11-20T20:59:26.782Z,91979.50
2022-11-20T21:02:11.374Z,91978.56
2022-11-20T21:04:54.443Z,91971.72
2022-11-20T21:07:58.211Z,91975.09
2022-11-20T21:10:41.177Z,91980.97
2022-11-20T21:13:25.492Z,91967.47
2022-11-20T21:16:08.872Z,91967.31
2022-11-20T21:18:51.988Z,91966.38
2022-11-20T21:21:52.715Z,91955.28
2022-11-20T21:24:37.388Z,91951.16
2022-11-20T21:27:20.329Z,91941.13
2022-11-20T21:30:05.173Z,91939.53
2022-11-20T21:32:48.220Z,91939.53
2022-11-20T21:35:31.215Z,91931.91
2022-11-20T21:38:14.165Z,91934.28
2022-11-20T21:40:58.499Z,91935.22
2022-11-20T21:43:42.737Z,91924.13
2022-11-20T21:46:27.690Z,91930.16
2022-11-20T21:49:11.049Z,91930.28
2022-11-20T21:51:54.439Z,91929.47
2022-11-20T21:54:37.439Z,91934.56
2022-11-20T21:57:20.343Z,91931.22
2022-11-20T22:00:03.779Z,91927.88
2022-11-20T22:02:54.463Z,91927.06
2022-11-20T22:05:37.470Z,91923.59
2022-11-20T22:08:20.381Z,91926.13
2022-11-20T22:11:04.794Z,91920.38
2022-11-20T22:14:05.318Z,91920.38
2022-11-20T22:16:49.178Z,91900.84
2022-11-20T22:19:33.507Z,91911.56
2022-11-20T22:22:16.459Z,91909.81
2022-11-20T22:24:59.451Z,91910.91
2022-11-20T22:27:42.426Z,91904.72
2022-11-20T22:30:26.423Z,91909.00
2022-11-20T22:33:13.513Z,91907.91
2022-11-20T22:36:02.969Z,91914.06
2022-11-20T22:38:46.316Z,91912.47
2022-11-20T22:41:29.915Z,91910.84
2022-11-20T22:44:16.308Z,91914.47
2022-11-20T22:46:59.249Z,91912.72
2022-11-20T22:49:42.267Z,91909.41
2022-11-20T22:52:26.554Z,91905.09
2022-11-20T22:55:15.967Z,91900.94
2022-11-20T22:57:59.314Z,91896.03
2022-11-20T23:00:42.315Z,91898.56
2022-11-20T23:03:25.299Z,91902.81
2022-11-20T23:06:10.246Z,91894.41
2022-11-20T23:08:54.881Z,91902.97
2022-11-20T23:11:38.079Z,91894.41
2022-11-20T23:14:26.361Z,91902.97
2022-11-20T23:17:10.766Z,91901.22
2022-11-20T23:19:53.762Z,91902.28
2022-11-20T23:22:36.806Z,91905.66
2022-11-20T23:25:21.081Z,91902.69
2022-11-20T23:28:04.037Z,91900.94
2022-11-20T23:30:48.051Z,91907.34
2022-11-20T23:33:31.407Z,91903.44
2022-11-20T23:36:15.037Z,91911.06
2022-11-20T23:38:58.009Z,91902.66
2022-11-20T23:41:42.340Z,91901.03
2022-11-20T23:44:25.805Z,91907.19
2022-11-20T23:47:08.991Z,91907.31
2022-11-20T23:49:51.950Z,91902.38
2022-11-20T23:52:34.856Z,91903.44
2022-11-20T23:55:17.943Z,91893.41
2022-11-20T23:58:02.571Z,91889.78
